Santa Clara, Oregon
Current Conditions -  °F | °C
As of 7:54 AM on Wednesday 22 Oct 2014 (Local Time) from KEUG Reporting Station
Overcast Overcast  
Wind Chill: 61°   Ceiling: 4500
Heat Index: 61°   Visibility: 10mi
Dew Point: 48°   Wind: 15mph
Humidity: 62%   Direction: 180°S
Pressure: 29.81"   Gusts: 25mph
Location:  44.1°N, 123.12°W
Report Text: KEUG 221454Z 18013G22KT 10SM BKN045 BKN055 OVC070 16/09 A2981 RMK AO2 SLP096 VCSH 60000 T01610089 56012
Loading
Personal Weather Stations






























Interactive Weather Map
Tropical Storm Tracking
New forecast layout! Learn more

10-Day Weather Forecast

Advertisements
Track Severe Weather on mobile